Time;durP1;ratioP1;P1;durP2;ratioP2;P2;SDS_P1;SDS_P2;PMS_P1;PMS_P2;Temp;Humidity;BMP_temperature;BMP_pressure;BME280_temperature;BME280_humidity;BME280_pressure;Samples;Min_cycle;Max_cycle;Signal;HPM_P1;HPM_P2
2024/03/30 00:01:51;;;;;;;21.65;7.63;;;9.50;99.90;;;;;;5014318;28;20147;-70
2024/03/30 00:04:17;;;;;;;22.60;6.53;;;9.50;99.90;;;;;;5013482;28;20030;-70
2024/03/30 00:06:43;;;;;;;13.30;7.55;;;9.40;99.90;;;;;;5004680;28;20042;-70
2024/03/30 00:09:09;;;;;;;11.93;6.20;;;9.40;99.90;;;;;;5011864;28;20026;-70
2024/03/30 00:11:35;;;;;;;12.65;6.80;;;9.50;99.90;;;;;;5007349;28;20026;-70
2024/03/30 00:14:03;;;;;;;13.90;6.28;;;9.50;99.90;;;;;;5012567;28;20040;-70
2024/03/30 00:16:29;;;;;;;17.08;6.82;;;9.50;99.90;;;;;;5001426;28;20049;-70
2024/03/30 00:18:57;;;;;;;11.15;6.30;;;9.50;99.90;;;;;;5011838;28;20474;-70
2024/03/30 00:21:22;;;;;;;12.55;6.70;;;9.50;99.90;;;;;;5013585;28;20124;-70
2024/03/30 00:23:48;;;;;;;10.43;5.82;;;9.40;99.90;;;;;;5020975;28;20179;-70
2024/03/30 00:26:15;;;;;;;11.75;6.22;;;9.40;99.90;;;;;;5008952;28;20094;-70
2024/03/30 00:28:41;;;;;;;16.95;6.50;;;9.30;99.90;;;;;;5008190;28;20378;-70
2024/03/30 00:31:06;;;;;;;11.02;5.57;;;9.20;99.90;;;;;;4995672;28;20109;-70
2024/03/30 00:33:32;;;;;;;12.15;6.65;;;9.10;99.90;;;;;;5002871;28;20506;-70
2024/03/30 00:35:58;;;;;;;16.60;6.57;;;9.00;99.90;;;;;;5011553;28;20053;-70
2024/03/30 00:38:25;;;;;;;13.30;6.75;;;9.10;99.90;;;;;;5011766;28;20022;-70
2024/03/30 00:40:51;;;;;;;10.82;6.35;;;9.10;99.90;;;;;;5011343;28;20026;-70
2024/03/30 00:43:16;;;;;;;21.65;7.85;;;8.90;99.90;;;;;;4985581;28;20031;-70
2024/03/30 00:45:43;;;;;;;13.60;6.78;;;9.00;99.90;;;;;;5008117;28;20030;-70
2024/03/30 00:48:09;;;;;;;11.93;6.03;;;9.00;99.90;;;;;;5004329;28;20415;-70
2024/03/30 00:50:35;;;;;;;12.60;6.22;;;8.90;99.90;;;;;;5003579;28;20065;-70
2024/03/30 00:53:04;;;;;;;11.73;6.35;;;8.90;99.90;;;;;;4995487;28;20084;-70
2024/03/30 00:55:30;;;;;;;9.88;6.28;;;8.80;99.90;;;;;;5017489;28;20029;-70
2024/03/30 00:57:57;;;;;;;12.75;6.50;;;8.70;99.90;;;;;;5002947;28;20036;-71
2024/03/30 01:00:23;;;;;;;13.20;5.35;;;8.60;99.90;;;;;;5011046;28;20130;-70
2024/03/30 01:02:48;;;;;;;13.52;6.13;;;8.60;99.90;;;;;;5008425;28;20121;-70
2024/03/30 01:05:15;;;;;;;14.93;6.13;;;8.60;99.90;;;;;;5003427;28;20114;-70
2024/03/30 01:07:41;;;;;;;12.45;5.75;;;8.50;99.90;;;;;;5010040;28;20029;-70
2024/03/30 01:10:10;;;;;;;14.77;7.00;;;8.50;99.90;;;;;;5005290;28;20036;-70
2024/03/30 01:12:39;;;;;;;9.77;5.90;;;8.60;99.90;;;;;;4996852;28;20076;-70
2024/03/30 01:15:07;;;;;;;14.38;7.03;;;8.50;99.90;;;;;;4993124;28;20029;-70
2024/03/30 01:17:34;;;;;;;15.15;6.47;;;8.50;99.90;;;;;;4999554;28;20046;-70
2024/03/30 01:20:05;;;;;;;13.88;6.55;;;8.50;99.90;;;;;;5009303;28;20100;-69
2024/03/30 01:22:34;;;;;;;8.93;6.03;;;8.30;99.90;;;;;;5012362;28;20026;-70
2024/03/30 01:25:00;;;;;;;10.38;6.15;;;8.20;99.90;;;;;;5017681;28;20379;-70
2024/03/30 01:27:28;;;;;;;11.50;5.88;;;8.20;99.90;;;;;;5012098;28;20026;-70
2024/03/30 01:30:09;;;;;;;10.60;5.25;;;8.10;99.90;;;;;;5002323;28;20036;-70
2024/03/30 01:32:36;;;;;;;13.10;6.32;;;8.10;99.90;;;;;;5012272;28;20022;-70
2024/03/30 01:35:03;;;;;;;10.40;5.20;;;8.10;99.90;;;;;;5002090;28;20049;-69
2024/03/30 01:37:29;;;;;;;11.48;6.55;;;8.00;99.90;;;;;;5010561;28;20426;-70
2024/03/30 01:39:56;;;;;;;10.43;4.45;;;8.10;99.90;;;;;;5010132;28;20113;-70
2024/03/30 01:42:31;;;;;;;11.82;5.28;;;8.00;99.90;;;;;;5012339;28;20061;-70
2024/03/30 01:44:57;;;;;;;11.88;5.93;;;8.00;99.90;;;;;;5010218;28;20030;-71
2024/03/30 01:47:27;;;;;;;11.82;6.47;;;8.00;99.90;;;;;;5011584;28;20044;-71
2024/03/30 01:49:57;;;;;;;11.55;5.05;;;8.10;99.90;;;;;;5011296;28;20490;-71
2024/03/30 01:52:27;;;;;;;12.07;5.97;;;8.00;99.90;;;;;;5010683;28;20026;-71
2024/03/30 01:54:53;;;;;;;11.55;6.55;;;8.20;99.90;;;;;;5011265;28;20121;-71
2024/03/30 01:57:21;;;;;;;11.90;5.63;;;8.20;99.90;;;;;;5010184;28;20025;-71
2024/03/30 01:59:48;;;;;;;15.95;6.50;;;8.20;99.90;;;;;;5011232;28;20172;-71
2024/03/30 02:02:14;;;;;;;14.35;7.15;;;8.30;99.90;;;;;;5010364;28;20072;-71
2024/03/30 02:04:41;;;;;;;11.35;6.22;;;8.30;99.90;;;;;;5008521;28;20068;-71
2024/03/30 02:07:08;;;;;;;11.63;6.13;;;8.30;99.90;;;;;;5004678;28;20033;-71
2024/03/30 02:09:36;;;;;;;15.73;6.80;;;8.30;99.90;;;;;;5005427;28;20022;-71
2024/03/30 02:12:05;;;;;;;11.35;6.95;;;8.40;99.90;;;;;;4996399;28;20022;-71
2024/03/30 02:14:30;;;;;;;12.73;6.53;;;8.40;99.90;;;;;;5006123;28;20118;-71
2024/03/30 02:16:56;;;;;;;18.02;5.82;;;8.50;99.90;;;;;;5010665;28;20080;-71
2024/03/30 02:19:23;;;;;;;10.68;5.22;;;8.50;99.90;;;;;;5007038;28;20550;-71
2024/03/30 02:21:49;;;;;;;14.00;6.30;;;8.50;99.90;;;;;;5001285;28;20042;-70
2024/03/30 02:24:15;;;;;;;9.00;6.03;;;8.60;99.90;;;;;;4999128;28;20045;-71
2024/03/30 02:26:41;;;;;;;11.55;5.35;;;8.60;99.90;;;;;;5007823;28;20034;-70
2024/03/30 02:29:10;;;;;;;8.60;5.10;;;8.50;99.90;;;;;;5007207;28;20061;-70
2024/03/30 02:31:36;;;;;;;10.60;5.15;;;8.50;99.90;;;;;;4998243;28;20015;-70
2024/03/30 02:34:03;;;;;;;8.32;4.18;;;8.40;99.90;;;;;;5008481;28;20028;-70
2024/03/30 02:36:30;;;;;;;7.63;4.25;;;8.40;99.90;;;;;;4979572;28;20073;-70
2024/03/30 02:38:56;;;;;;;12.05;5.32;;;8.30;99.90;;;;;;5007594;28;20104;-70
2024/03/30 02:41:22;;;;;;;9.13;4.80;;;8.20;99.90;;;;;;5003236;28;20064;-70
2024/03/30 02:43:47;;;;;;;6.63;4.18;;;8.20;99.90;;;;;;5011050;28;20069;-70
2024/03/30 02:46:13;;;;;;;9.13;5.22;;;8.10;99.90;;;;;;5002287;28;20034;-70
2024/03/30 02:48:39;;;;;;;9.73;5.03;;;8.10;99.90;;;;;;5011394;28;20033;-70
2024/03/30 02:51:04;;;;;;;12.93;5.40;;;8.10;99.90;;;;;;5010565;28;20398;-70
2024/03/30 02:53:30;;;;;;;10.85;5.45;;;8.00;99.90;;;;;;5016412;28;20026;-70
2024/03/30 02:55:56;;;;;;;12.35;5.60;;;7.90;99.90;;;;;;5002891;28;20038;-70
2024/03/30 02:58:21;;;;;;;9.30;5.45;;;7.90;99.90;;;;;;5002739;28;20041;-70
2024/03/30 03:00:47;;;;;;;10.07;5.32;;;7.90;99.90;;;;;;5000989;28;20045;-70
2024/03/30 03:03:13;;;;;;;6.18;3.92;;;7.90;99.90;;;;;;5011155;28;20025;-71
2024/03/30 03:05:39;;;;;;;10.13;5.22;;;7.90;99.90;;;;;;5010233;28;20048;-70
2024/03/30 03:08:05;;;;;;;10.50;5.90;;;7.80;99.90;;;;;;5003716;28;20030;-70
2024/03/30 03:10:30;;;;;;;7.97;5.40;;;7.80;99.90;;;;;;5010624;28;20076;-71
2024/03/30 03:12:56;;;;;;;11.13;4.25;;;7.70;99.90;;;;;;5007099;28;20467;-70
2024/03/30 03:15:22;;;;;;;19.23;8.15;;;7.60;99.90;;;;;;5006026;28;20478;-71
2024/03/30 03:17:48;;;;;;;10.88;5.97;;;7.60;99.90;;;;;;5010699;28;20463;-70
2024/03/30 03:20:15;;;;;;;10.95;5.28;;;7.60;99.90;;;;;;5007525;28;20066;-70
2024/03/30 03:22:40;;;;;;;11.35;5.97;;;7.60;99.90;;;;;;5003424;28;20062;-70
2024/03/30 03:25:06;;;;;;;7.15;4.35;;;7.50;99.90;;;;;;5011838;28;20403;-70
2024/03/30 03:27:32;;;;;;;9.27;4.75;;;7.50;99.90;;;;;;5007663;28;20022;-70
2024/03/30 03:29:58;;;;;;;9.57;4.80;;;7.50;99.90;;;;;;5012706;28;20816;-70
2024/03/30 03:32:23;;;;;;;9.90;4.68;;;7.50;99.90;;;;;;5000600;28;20374;-70
2024/03/30 03:34:49;;;;;;;11.57;5.28;;;7.50;99.90;;;;;;5001078;28;20033;-70
2024/03/30 03:37:15;;;;;;;9.25;4.90;;;7.50;99.90;;;;;;5001191;28;20034;-70
2024/03/30 03:39:40;;;;;;;10.75;4.63;;;7.50;99.90;;;;;;5007132;28;20398;-70
2024/03/30 03:42:06;;;;;;;8.98;5.32;;;7.40;99.90;;;;;;5013959;28;20068;-70
2024/03/30 03:44:32;;;;;;;9.02;5.25;;;7.50;99.90;;;;;;5013479;28;20453;-70
2024/03/30 03:46:58;;;;;;;9.75;4.80;;;7.40;99.90;;;;;;5012462;28;20152;-70
2024/03/30 03:49:24;;;;;;;11.93;6.22;;;7.50;99.90;;;;;;5010535;28;20080;-70
2024/03/30 03:51:51;;;;;;;10.82;4.97;;;7.40;99.90;;;;;;5002917;28;20034;-70
2024/03/30 03:54:19;;;;;;;9.55;5.00;;;7.30;99.90;;;;;;5020325;28;20045;-71
2024/03/30 03:56:45;;;;;;;11.07;5.93;;;7.30;99.90;;;;;;4993180;28;20077;-70
2024/03/30 03:59:11;;;;;;;9.75;4.80;;;7.40;99.90;;;;;;4987800;28;20030;-70
2024/03/30 04:01:37;;;;;;;8.50;4.55;;;7.40;99.90;;;;;;5012660;28;20554;-70
2024/03/30 04:04:02;;;;;;;9.98;5.10;;;7.30;99.90;;;;;;5002994;28;20056;-70
2024/03/30 04:06:28;;;;;;;7.25;4.18;;;7.30;99.90;;;;;;4998044;28;20104;-70
2024/03/30 04:08:56;;;;;;;10.43;4.88;;;7.30;99.90;;;;;;5013504;28;20513;-70
2024/03/30 04:11:22;;;;;;;10.02;4.78;;;7.30;99.90;;;;;;4983732;28;20114;-70
2024/03/30 04:13:48;;;;;;;9.85;4.63;;;7.20;99.90;;;;;;5000362;28;20056;-70
2024/03/30 04:16:13;;;;;;;13.18;5.82;;;7.20;99.90;;;;;;5001281;28;20490;-70
2024/03/30 04:18:39;;;;;;;8.57;4.90;;;7.20;99.90;;;;;;5006296;28;20811;-70
2024/03/30 04:21:05;;;;;;;8.10;4.47;;;7.20;99.90;;;;;;5013582;28;20061;-70
2024/03/30 04:23:32;;;;;;;9.80;5.13;;;7.20;99.90;;;;;;5001732;28;20034;-70
2024/03/30 04:26:11;;;;;;;12.77;5.28;;;7.10;99.90;;;;;;5009630;28;20038;-70
2024/03/30 04:28:37;;;;;;;8.00;5.07;;;7.10;99.90;;;;;;5006563;28;20084;-70
2024/03/30 04:31:05;;;;;;;8.13;5.15;;;7.10;99.90;;;;;;4978917;28;20030;-70
2024/03/30 04:33:31;;;;;;;11.30;5.75;;;7.10;99.90;;;;;;4982366;28;20101;-70
2024/03/30 04:36:03;;;;;;;8.23;4.20;;;7.00;99.90;;;;;;5009236;28;20021;-70
2024/03/30 04:38:33;;;;;;;7.32;4.20;;;6.90;99.90;;;;;;5011500;28;20447;-70
2024/03/30 04:41:04;;;;;;;8.95;4.38;;;6.90;99.90;;;;;;5012057;28;20030;-71
2024/03/30 04:43:32;;;;;;;;;;;6.80;99.90;;;;;;5011589;28;20034;-70
2024/03/30 04:45:59;;;;;;;8.27;5.15;;;6.80;99.90;;;;;;5012242;28;19993;-70
2024/03/30 04:48:27;;;;;;;6.00;4.28;;;6.90;99.90;;;;;;5008081;28;20026;-70
2024/03/30 04:50:54;;;;;;;7.78;3.95;;;6.90;99.90;;;;;;5008901;28;20041;-70
2024/03/30 04:53:24;;;;;;;8.85;5.32;;;6.80;99.90;;;;;;5012537;28;20022;-70
2024/03/30 04:55:56;;;;;;;8.30;4.53;;;6.80;99.90;;;;;;5002784;28;20053;-70
2024/03/30 04:58:27;;;;;;;6.97;4.40;;;6.80;99.90;;;;;;5012631;28;20198;-70
2024/03/30 05:00:59;;;;;;;9.32;4.85;;;6.80;99.90;;;;;;5008322;28;20030;-70
2024/03/30 05:03:25;;;;;;;7.38;4.05;;;6.80;99.90;;;;;;5010912;28;20037;-70
2024/03/30 05:05:51;;;;;;;6.78;3.67;;;6.70;99.90;;;;;;5011090;28;20496;-70
2024/03/30 05:08:16;;;;;;;10.25;5.22;;;6.70;99.90;;;;;;5008104;28;20053;-70
2024/03/30 05:10:45;;;;;;;9.18;4.70;;;6.80;99.90;;;;;;5007076;28;20371;-70
2024/03/30 05:13:15;;;;;;;9.68;5.18;;;6.70;99.90;;;;;;5010620;28;20036;-70
2024/03/30 05:15:42;;;;;;;6.97;4.40;;;6.70;99.90;;;;;;5012194;28;20406;-70
2024/03/30 05:18:10;;;;;;;8.75;4.85;;;6.70;99.90;;;;;;4987662;28;20042;-70
2024/03/30 05:20:50;;;;;;;9.95;5.28;;;6.70;99.90;;;;;;5012550;28;20064;-70
2024/03/30 05:23:21;;;;;;;7.05;4.30;;;6.70;99.90;;;;;;5015455;28;20481;-71
2024/03/30 05:25:48;;;;;;;8.25;4.47;;;6.80;99.90;;;;;;5014087;28;20087;-70
2024/03/30 05:28:20;;;;;;;11.35;5.18;;;6.80;99.90;;;;;;4986132;28;20401;-71
2024/03/30 05:30:50;;;;;;;;;;;6.80;99.90;;;;;;5009504;28;20111;-71
2024/03/30 05:33:16;;;;;;;7.20;4.70;;;6.70;99.90;;;;;;5018734;28;19936;-71
2024/03/30 05:35:42;;;;;;;7.22;4.82;;;6.70;99.90;;;;;;5006939;28;20034;-70
2024/03/30 05:38:08;;;;;;;8.25;3.80;;;6.60;99.90;;;;;;5009401;28;20072;-70
2024/03/30 05:40:35;;;;;;;9.30;4.55;;;6.70;99.90;;;;;;4999357;28;20046;-69
2024/03/30 05:43:03;;;;;;;11.15;5.60;;;6.70;99.90;;;;;;5007946;28;20088;-70
2024/03/30 05:45:30;;;;;;;10.07;5.47;;;6.70;99.90;;;;;;5010620;28;20025;-70
2024/03/30 05:47:56;;;;;;;11.95;5.97;;;6.80;99.90;;;;;;4987195;28;20495;-70
2024/03/30 05:50:23;;;;;;;11.68;5.45;;;6.70;99.90;;;;;;5010928;28;20040;-70
2024/03/30 05:52:50;;;;;;;22.42;12.43;;;6.90;99.90;;;;;;4994028;28;20095;-69
2024/03/30 05:55:16;;;;;;;35.15;15.85;;;6.90;99.90;;;;;;5001561;28;20030;-69
2024/03/30 05:57:42;;;;;;;33.80;16.58;;;7.00;99.90;;;;;;5007236;28;20398;-69
2024/03/30 06:00:11;;;;;;;11.88;5.50;;;7.00;99.90;;;;;;5011580;28;20099;-70
2024/03/30 06:02:44;;;;;;;9.27;4.57;;;7.10;99.90;;;;;;5006540;28;20364;-70
2024/03/30 06:05:11;;;;;;;7.10;4.80;;;7.20;99.90;;;;;;4986042;28;20030;-71
2024/03/30 06:07:38;;;;;;;10.38;4.85;;;7.30;99.90;;;;;;5009664;28;20026;-70
2024/03/30 06:10:07;;;;;;;8.18;4.40;;;7.20;99.90;;;;;;5008345;28;20483;-71
2024/03/30 06:12:37;;;;;;;9.38;4.68;;;7.10;99.90;;;;;;5010296;28;20029;-70
2024/03/30 06:15:05;;;;;;;8.68;4.57;;;7.30;99.90;;;;;;5004630;28;20057;-70
2024/03/30 06:17:38;;;;;;;8.52;4.28;;;7.40;99.90;;;;;;5001331;28;20083;-70
2024/03/30 06:20:06;;;;;;;8.20;4.70;;;7.50;99.90;;;;;;5009424;28;20042;-70
2024/03/30 06:22:36;;;;;;;7.68;4.13;;;7.40;99.90;;;;;;5011377;28;20022;-70
2024/03/30 06:25:04;;;;;;;6.30;3.70;;;7.40;99.90;;;;;;5013290;28;20054;-70
2024/03/30 06:27:31;;;;;;;6.72;3.95;;;7.50;99.90;;;;;;5006217;28;20027;-70
2024/03/30 06:29:57;;;;;;;7.85;4.57;;;7.60;99.90;;;;;;5008465;28;20042;-70
2024/03/30 06:32:23;;;;;;;8.57;4.05;;;7.60;99.90;;;;;;5010022;28;20045;-70
2024/03/30 06:34:50;;;;;;;8.90;4.60;;;7.40;99.90;;;;;;5006088;28;20034;-69
2024/03/30 06:37:16;;;;;;;6.60;3.85;;;7.60;99.90;;;;;;5001705;28;20026;-68
2024/03/30 06:45:11;;;;;;;8.63;4.35;;;7.90;99.90;;;;;;5001409;28;20701;-69
2024/03/30 06:47:39;;;;;;;8.05;4.53;;;8.00;99.90;;;;;;5010308;28;20105;-69
2024/03/30 06:50:06;;;;;;;8.77;4.28;;;8.00;99.90;;;;;;4999817;28;20080;-71
2024/03/30 06:52:32;;;;;;;11.05;4.85;;;8.00;99.90;;;;;;5008296;28;20026;-69
2024/03/30 06:54:58;;;;;;;9.25;4.13;;;8.10;99.90;;;;;;5000562;28;20038;-71
2024/03/30 06:57:23;;;;;;;7.78;4.85;;;8.20;99.90;;;;;;4989881;28;20498;-71
2024/03/30 06:59:49;;;;;;;7.70;4.22;;;8.20;99.90;;;;;;5007565;28;20041;-71
2024/03/30 07:02:17;;;;;;;6.75;3.55;;;8.20;99.90;;;;;;5010446;28;20030;-70
2024/03/30 07:04:43;;;;;;;8.85;4.95;;;8.30;99.90;;;;;;5010998;28;20022;-71
2024/03/30 07:07:08;;;;;;;9.23;4.13;;;8.30;99.90;;;;;;5003425;28;20486;-70
2024/03/30 07:09:34;;;;;;;6.70;3.95;;;8.30;99.90;;;;;;5006242;28;20018;-70
2024/03/30 07:12:00;;;;;;;6.78;3.90;;;8.40;99.90;;;;;;5010775;28;20105;-70
2024/03/30 07:14:27;;;;;;;7.95;4.40;;;8.40;99.90;;;;;;5006663;28;20113;-71
2024/03/30 07:16:55;;;;;;;7.97;4.43;;;8.50;99.90;;;;;;5007195;28;20709;-70
2024/03/30 07:19:22;;;;;;;7.85;4.30;;;8.30;99.90;;;;;;5009112;28;20041;-70
2024/03/30 07:21:48;;;;;;;7.82;4.85;;;8.40;99.90;;;;;;5007876;28;20038;-70
2024/03/30 07:24:14;;;;;;;6.38;4.50;;;8.20;99.90;;;;;;5011085;28;20033;-72
2024/03/30 07:26:39;;;;;;;9.75;4.22;;;8.40;99.90;;;;;;5025629;28;20101;-71
2024/03/30 07:29:08;;;;;;;6.93;4.10;;;8.50;99.90;;;;;;5008590;28;20029;-71
2024/03/30 07:31:33;;;;;;;6.00;3.80;;;8.60;99.90;;;;;;5010649;28;20034;-71
2024/03/30 07:33:59;;;;;;;10.32;5.40;;;8.70;99.90;;;;;;5006153;28;20113;-71
2024/03/30 07:36:25;;;;;;;13.52;7.20;;;8.60;99.90;;;;;;5010547;28;20026;-71
2024/03/30 07:38:51;;;;;;;7.35;4.78;;;8.60;99.90;;;;;;5002182;28;20037;-71
2024/03/30 07:41:16;;;;;;;7.75;4.38;;;8.70;99.90;;;;;;5010424;28;20034;-71
2024/03/30 07:43:42;;;;;;;7.75;4.10;;;8.70;99.90;;;;;;5010600;28;20044;-71
2024/03/30 07:46:08;;;;;;;7.32;4.03;;;8.80;99.90;;;;;;5009741;28;20037;-71
2024/03/30 07:48:33;;;;;;;15.10;7.47;;;8.90;99.90;;;;;;5008431;28;20108;-71
2024/03/30 07:50:59;;;;;;;9.45;5.03;;;9.00;99.90;;;;;;5010598;28;20033;-71
2024/03/30 07:53:25;;;;;;;9.57;5.53;;;9.10;99.90;;;;;;5008714;28;20030;-71
2024/03/30 07:55:52;;;;;;;7.97;4.85;;;9.00;99.90;;;;;;5009307;28;20061;-71
2024/03/30 07:58:17;;;;;;;6.78;4.20;;;9.00;99.90;;;;;;5004326;28;20368;-71
2024/03/30 08:00:43;;;;;;;7.80;4.68;;;8.80;99.90;;;;;;5003607;28;20056;-71
2024/03/30 08:03:09;;;;;;;8.52;4.90;;;8.90;99.90;;;;;;5009889;28;20475;-72
2024/03/30 08:05:34;;;;;;;8.07;4.55;;;9.00;99.90;;;;;;5008553;28;20022;-69
2024/03/30 08:08:01;;;;;;;6.93;3.92;;;9.10;99.90;;;;;;5010957;28;20402;-70
2024/03/30 08:10:27;;;;;;;5.78;3.65;;;9.20;99.90;;;;;;5011414;28;20040;-70
2024/03/30 08:12:53;;;;;;;8.32;4.18;;;9.30;99.90;;;;;;5009389;28;20422;-70
2024/03/30 08:15:19;;;;;;;9.00;3.70;;;9.30;99.90;;;;;;4992037;28;20479;-70
2024/03/30 08:17:44;;;;;;;7.20;4.43;;;9.30;99.90;;;;;;5004435;28;20038;-70
2024/03/30 08:20:10;;;;;;;8.60;3.58;;;9.30;99.90;;;;;;5009460;28;20121;-70
2024/03/30 08:22:37;;;;;;;6.60;3.90;;;9.40;99.90;;;;;;5011033;28;20034;-68
2024/03/30 08:25:04;;;;;;;9.73;4.60;;;9.40;99.90;;;;;;5010172;28;20037;-69
2024/03/30 08:27:32;;;;;;;11.50;5.53;;;9.40;99.90;;;;;;5006985;28;20018;-70
2024/03/30 08:29:58;;;;;;;12.13;5.68;;;9.30;99.90;;;;;;5010693;28;20505;-69
2024/03/30 08:32:23;;;;;;;9.88;4.88;;;9.30;99.90;;;;;;5013237;28;20050;-72
2024/03/30 08:34:49;;;;;;;9.73;3.90;;;9.20;99.90;;;;;;5011888;28;20133;-72
2024/03/30 08:37:15;;;;;;;7.25;3.80;;;9.20;99.90;;;;;;5000956;28;20493;-71
2024/03/30 08:39:40;;;;;;;7.20;3.88;;;9.10;99.90;;;;;;5008582;28;20062;-67
2024/03/30 08:42:06;;;;;;;7.07;4.35;;;9.20;99.90;;;;;;5012959;28;20018;-68
2024/03/30 08:44:32;;;;;;;6.45;2.83;;;9.30;99.90;;;;;;5012916;28;20041;-67
2024/03/30 08:46:58;;;;;;;5.63;3.47;;;9.50;99.90;;;;;;5012481;28;20022;-67
2024/03/30 08:49:23;;;;;;;8.50;4.25;;;9.50;99.90;;;;;;4988265;28;20030;-68
2024/03/30 08:51:49;;;;;;;18.33;4.20;;;9.50;99.90;;;;;;5012833;28;20026;-67
2024/03/30 08:54:15;;;;;;;6.95;4.25;;;9.60;99.90;;;;;;5008156;28;20029;-68
2024/03/30 08:56:40;;;;;;;5.85;3.55;;;9.70;99.90;;;;;;5012423;28;20088;-67
2024/03/30 08:59:06;;;;;;;11.95;4.00;;;9.80;99.90;;;;;;5008287;28;20057;-69
2024/03/30 09:01:32;;;;;;;6.00;3.85;;;10.00;99.90;;;;;;5011563;28;20033;-68
2024/03/30 09:03:58;;;;;;;6.80;3.03;;;10.10;99.90;;;;;;5005712;28;20117;-70
2024/03/30 09:06:24;;;;;;;6.63;3.97;;;10.00;99.90;;;;;;5027234;28;20132;-66
2024/03/30 09:08:50;;;;;;;8.98;4.20;;;10.00;99.90;;;;;;5007200;28;20471;-69
2024/03/30 09:11:16;;;;;;;7.35;3.75;;;10.00;99.90;;;;;;5012130;28;20026;-69
2024/03/30 09:13:42;;;;;;;6.80;3.97;;;10.10;99.90;;;;;;5004539;28;20030;-69
2024/03/30 09:16:08;;;;;;;7.20;4.18;;;10.20;99.90;;;;;;5012169;28;20486;-69
2024/03/30 09:18:34;;;;;;;11.07;4.57;;;10.30;99.90;;;;;;5011754;28;20026;-71
2024/03/30 09:21:02;;;;;;;8.75;4.75;;;10.40;99.90;;;;;;5010748;28;20505;-68
2024/03/30 09:23:28;;;;;;;6.55;4.05;;;10.60;99.90;;;;;;5007860;28;20079;-66
2024/03/30 09:25:54;;;;;;;7.68;4.65;;;10.70;99.90;;;;;;5011410;28;20038;-66
2024/03/30 09:28:20;;;;;;;8.05;4.65;;;10.80;99.90;;;;;;5012158;28;20018;-65
2024/03/30 09:30:47;;;;;;;7.00;4.53;;;10.90;99.90;;;;;;5012220;28;20038;-71
2024/03/30 09:33:14;;;;;;;10.35;5.45;;;11.10;99.90;;;;;;5007501;28;20566;-71
2024/03/30 09:35:41;;;;;;;8.50;4.53;;;11.00;99.90;;;;;;5011336;28;20117;-71
2024/03/30 09:38:07;;;;;;;6.90;4.63;;;11.10;99.90;;;;;;5005222;28;20432;-71
2024/03/30 09:40:33;;;;;;;6.38;3.58;;;11.10;99.90;;;;;;5011837;28;20030;-71
2024/03/30 09:43:00;;;;;;;7.85;4.00;;;11.20;99.90;;;;;;5009091;28;20367;-71
2024/03/30 09:45:29;;;;;;;11.02;4.88;;;11.40;99.90;;;;;;5011425;28;20029;-71
2024/03/30 09:48:01;;;;;;;6.63;3.67;;;11.50;99.90;;;;;;5009136;28;20117;-71
2024/03/30 09:50:27;;;;;;;9.05;3.97;;;11.60;99.90;;;;;;5011723;28;20037;-71
2024/03/30 09:52:54;;;;;;;6.93;3.75;;;11.40;99.90;;;;;;5003542;28;20471;-72
2024/03/30 09:55:22;;;;;;;8.57;4.47;;;11.50;99.90;;;;;;5010336;28;20036;-72
2024/03/30 09:57:52;;;;;;;6.75;3.42;;;11.60;99.90;;;;;;5010014;28;20026;-72
2024/03/30 10:00:19;;;;;;;6.07;3.55;;;11.70;99.90;;;;;;5011821;28;20479;-72
2024/03/30 10:02:46;;;;;;;7.32;4.55;;;11.80;99.90;;;;;;5010929;28;20113;-72
2024/03/30 10:05:13;;;;;;;6.72;4.32;;;12.00;99.90;;;;;;5010471;28;20026;-72
2024/03/30 10:08:00;;;;;;;10.75;4.72;;;12.00;99.90;;;;;;5009079;28;20108;-72
2024/03/30 10:10:28;;;;;;;10.65;4.38;;;12.10;99.90;;;;;;5009738;28;20517;-72
2024/03/30 10:13:03;;;;;;;12.10;3.72;;;12.40;99.90;;;;;;5009728;28;20428;-72
2024/03/30 10:15:55;;;;;;;10.95;5.15;;;12.60;99.90;;;;;;5009464;28;20368;-71
2024/03/30 10:18:22;;;;;;;9.50;3.85;;;13.00;99.90;;;;;;5006161;28;20049;-71
2024/03/30 10:20:48;;;;;;;5.50;3.55;;;13.30;99.90;;;;;;5009784;28;20026;-71
2024/03/30 10:23:14;;;;;;;9.45;4.55;;;13.30;99.90;;;;;;5010897;28;20446;-71
2024/03/30 10:25:54;;;;;;;10.02;4.45;;;13.10;99.90;;;;;;5009454;28;20032;-71
2024/03/30 10:28:21;;;;;;;22.20;5.88;;;13.10;99.90;;;;;;5001353;28;20036;-71
2024/03/30 10:30:48;;;;;;;8.55;4.30;;;13.20;99.90;;;;;;5008473;28;20041;-71
2024/03/30 10:33:21;;;;;;;11.23;4.40;;;13.10;99.90;;;;;;5006981;28;20543;-71
2024/03/30 10:35:49;;;;;;;9.07;4.90;;;13.10;99.90;;;;;;5009264;28;20033;-71
2024/03/30 10:38:15;;;;;;;14.32;4.68;;;13.10;99.90;;;;;;5008139;28;20026;-71
2024/03/30 10:40:42;;;;;;;9.52;4.80;;;12.80;99.90;;;;;;5006277;28;20398;-71
2024/03/30 10:43:08;;;;;;;10.65;4.32;;;12.90;99.90;;;;;;5005618;28;20482;-71
2024/03/30 10:45:34;;;;;;;12.18;4.63;;;12.90;99.90;;;;;;5008891;28;20033;-69
2024/03/30 10:48:00;;;;;;;12.25;5.75;;;12.90;99.90;;;;;;4990245;28;20037;-69
2024/03/30 10:50:27;;;;;;;11.13;4.40;;;12.90;99.90;;;;;;5008724;28;20030;-69
2024/03/30 10:52:58;;;;;;;10.07;4.25;;;12.90;99.90;;;;;;5000004;28;20060;-69
2024/03/30 10:55:24;;;;;;;14.60;4.35;;;13.00;99.90;;;;;;4999851;28;20038;-68
2024/03/30 10:57:56;;;;;;;6.68;3.38;;;13.10;99.90;;;;;;5008412;28;20371;-69
2024/03/30 11:00:25;;;;;;;6.85;3.63;;;13.10;99.90;;;;;;5003346;28;20030;-69
2024/03/30 11:02:53;;;;;;;9.05;3.20;;;13.20;99.90;;;;;;5007000;28;20434;-70
2024/03/30 11:05:21;;;;;;;6.03;2.97;;;13.30;99.90;;;;;;5007225;28;20026;-70
2024/03/30 11:07:48;;;;;;;9.68;4.15;;;13.40;99.90;;;;;;5008533;28;20378;-70
2024/03/30 11:10:14;;;;;;;5.75;2.88;;;13.40;99.90;;;;;;5008824;28;20069;-68
2024/03/30 11:12:43;;;;;;;8.30;3.83;;;13.50;99.90;;;;;;5004682;28;20368;-69
2024/03/30 11:15:08;;;;;;;6.57;2.92;;;13.40;99.90;;;;;;5007588;28;20045;-70
2024/03/30 11:17:48;;;;;;;11.50;3.00;;;13.40;99.90;;;;;;5008246;28;20026;-69
2024/03/30 11:20:16;;;;;;;6.95;3.42;;;13.40;99.90;;;;;;5008145;28;20081;-69
2024/03/30 11:22:54;;;;;;;7.05;3.75;;;13.30;99.90;;;;;;5004160;28;20023;-70
2024/03/30 11:25:23;;;;;;;7.43;3.10;;;13.10;99.90;;;;;;4999025;28;20027;-69
2024/03/30 11:28:03;;;;;;;6.47;3.22;;;13.00;99.90;;;;;;5001872;28;20058;-69
2024/03/30 11:30:48;;;;;;;7.83;4.40;;;12.90;99.90;;;;;;5004937;28;20030;-69
2024/03/30 11:33:21;;;;;;;8.95;3.53;;;12.70;99.90;;;;;;5010104;28;20054;-69
2024/03/30 11:36:06;;;;;;;14.18;3.03;;;12.70;99.90;;;;;;5000324;28;20348;-69
2024/03/30 11:38:36;;;;;;;18.63;2.78;;;12.80;99.90;;;;;;5012251;28;20391;-69
2024/03/30 11:41:03;;;;;;;7.68;3.15;;;12.80;99.90;;;;;;5008502;28;20384;-72
2024/03/30 11:43:38;;;;;;;6.43;2.85;;;13.00;99.90;;;;;;5011561;28;20033;-74
2024/03/30 11:46:06;;;;;;;6.15;3.17;;;13.00;99.90;;;;;;5013589;28;20037;-71
2024/03/30 11:48:32;;;;;;;10.90;3.38;;;13.10;99.90;;;;;;5009076;28;20029;-71
2024/03/30 11:50:58;;;;;;;9.20;3.35;;;13.10;99.90;;;;;;5012857;28;20117;-72
2024/03/30 11:53:24;;;;;;;11.10;2.38;;;13.20;99.90;;;;;;5013488;28;20112;-71
2024/03/30 11:55:53;;;;;;;16.60;2.42;;;13.00;99.90;;;;;;5013523;28;20129;-71
2024/03/30 11:58:25;;;;;;;9.23;2.35;;;12.80;99.90;;;;;;5013524;28;20042;-72
2024/03/30 12:00:58;;;;;;;10.93;2.90;;;12.90;99.90;;;;;;5004376;28;20034;-71
2024/03/30 12:03:26;;;;;;;10.88;2.95;;;13.10;99.90;;;;;;5009344;28;20034;-72
2024/03/30 12:05:53;;;;;;;4.57;2.72;;;13.10;99.90;;;;;;4988465;28;20458;-72
2024/03/30 12:08:26;;;;;;;5.82;2.42;;;12.80;99.90;;;;;;5011276;28;20092;-70
2024/03/30 12:10:53;;;;;;;12.65;3.05;;;12.80;99.90;;;;;;4989939;28;20060;-71
2024/03/30 12:13:24;;;;;;;4.90;2.65;;;12.80;99.90;;;;;;5011854;28;20044;-70
2024/03/30 12:15:50;;;;;;;7.22;2.55;;;13.00;99.90;;;;;;5012259;28;20038;-70
2024/03/30 12:18:20;;;;;;;11.15;3.30;;;12.90;99.90;;;;;;5009098;28;20402;-79
2024/03/30 12:20:48;;;;;;;9.00;3.13;;;13.00;99.90;;;;;;5003668;28;20030;-80
2024/03/30 12:23:17;;;;;;;14.55;3.33;;;13.10;99.90;;;;;;5013737;28;20096;-81
2024/03/30 12:25:44;;;;;;;11.40;4.85;;;13.00;99.90;;;;;;5001495;28;20052;-79
2024/03/30 12:28:10;;;;;;;8.50;3.67;;;13.10;99.90;;;;;;5000285;28;20509;-78
2024/03/30 12:30:45;;;;;;;11.77;3.28;;;13.20;99.90;;;;;;5014407;28;20026;-77
2024/03/30 12:33:12;;;;;;;9.25;2.78;;;13.30;99.90;;;;;;5010353;28;20355;-77
2024/03/30 12:35:42;;;;;;;8.82;2.83;;;13.30;99.90;;;;;;5012782;28;20029;-77
2024/03/30 12:38:18;;;;;;;9.57;2.63;;;13.30;99.90;;;;;;5007559;28;20026;-75
2024/03/30 12:40:45;;;;;;;11.20;3.83;;;13.40;99.90;;;;;;5012411;28;20034;-76
2024/03/30 12:43:13;;;;;;;25.52;6.78;;;13.20;99.90;;;;;;5009144;28;20101;-76
2024/03/30 12:45:39;;;;;;;16.80;5.57;;;13.10;99.90;;;;;;4995835;28;20026;-77
2024/03/30 12:48:05;;;;;;;6.57;2.72;;;13.30;99.90;;;;;;5011423;28;20041;-77
2024/03/30 12:50:31;;;;;;;11.50;2.85;;;13.30;99.90;;;;;;5010927;28;20490;-76
2024/03/30 12:53:00;;;;;;;9.35;2.78;;;13.40;99.90;;;;;;5014933;28;20132;-76
2024/03/30 12:55:27;;;;;;;5.47;2.67;;;13.40;99.90;;;;;;5022201;28;20028;-76
2024/03/30 12:57:53;;;;;;;10.95;3.05;;;13.40;99.90;;;;;;5015079;28;20495;-75